sensor_id;sensor_type;location;lat;lon;timestamp;P1;durP1;ratioP1;P2;durP2;ratioP2
71166;SDS011;58864;45.928;20.078;2023-12-28T00:02:07;31.30;;;13.37;;
71166;SDS011;58864;45.928;20.078;2023-12-28T00:04:31;30.87;;;13.57;;
71166;SDS011;58864;45.928;20.078;2023-12-28T00:06:58;31.50;;;12.75;;
71166;SDS011;58864;45.928;20.078;2023-12-28T00:09:23;32.47;;;13.33;;
71166;SDS011;58864;45.928;20.078;2023-12-28T00:11:47;31.60;;;12.70;;
71166;SDS011;58864;45.928;20.078;2023-12-28T00:14:11;28.77;;;13.03;;
71166;SDS011;58864;45.928;20.078;2023-12-28T00:16:36;27.53;;;11.20;;
71166;SDS011;58864;45.928;20.078;2023-12-28T00:19:01;24.50;;;11.32;;
71166;SDS011;58864;45.928;20.078;2023-12-28T00:21:26;25.40;;;11.50;;
71166;SDS011;58864;45.928;20.078;2023-12-28T00:23:50;24.70;;;11.60;;
71166;SDS011;58864;45.928;20.078;2023-12-28T00:26:15;26.63;;;12.30;;
71166;SDS011;58864;45.928;20.078;2023-12-28T00:28:45;26.77;;;12.68;;
71166;SDS011;58864;45.928;20.078;2023-12-28T00:31:09;27.63;;;12.37;;
71166;SDS011;58864;45.928;20.078;2023-12-28T00:33:34;29.17;;;12.70;;
71166;SDS011;58864;45.928;20.078;2023-12-28T00:35:58;33.42;;;12.75;;
71166;SDS011;58864;45.928;20.078;2023-12-28T00:38:22;30.57;;;13.60;;
71166;SDS011;58864;45.928;20.078;2023-12-28T00:40:47;32.40;;;13.87;;
71166;SDS011;58864;45.928;20.078;2023-12-28T00:43:11;31.17;;;13.53;;
71166;SDS011;58864;45.928;20.078;2023-12-28T00:45:36;33.50;;;14.70;;
71166;SDS011;58864;45.928;20.078;2023-12-28T00:48:00;37.83;;;15.10;;
71166;SDS011;58864;45.928;20.078;2023-12-28T00:50:24;31.50;;;13.93;;
71166;SDS011;58864;45.928;20.078;2023-12-28T00:52:51;30.67;;;14.20;;
71166;SDS011;58864;45.928;20.078;2023-12-28T00:55:16;33.80;;;15.10;;
71166;SDS011;58864;45.928;20.078;2023-12-28T00:57:41;36.05;;;15.77;;
71166;SDS011;58864;45.928;20.078;2023-12-28T01:00:05;37.33;;;15.87;;
71166;SDS011;58864;45.928;20.078;2023-12-28T01:02:30;36.45;;;16.10;;
71166;SDS011;58864;45.928;20.078;2023-12-28T01:04:54;37.20;;;16.53;;
71166;SDS011;58864;45.928;20.078;2023-12-28T01:07:19;30.37;;;15.93;;
71166;SDS011;58864;45.928;20.078;2023-12-28T01:09:43;35.63;;;15.70;;
71166;SDS011;58864;45.928;20.078;2023-12-28T01:12:08;39.75;;;17.38;;
71166;SDS011;58864;45.928;20.078;2023-12-28T01:14:32;37.00;;;16.60;;
71166;SDS011;58864;45.928;20.078;2023-12-28T01:16:57;38.70;;;17.43;;
71166;SDS011;58864;45.928;20.078;2023-12-28T01:19:24;38.58;;;16.80;;
71166;SDS011;58864;45.928;20.078;2023-12-28T01:21:48;33.97;;;17.30;;
71166;SDS011;58864;45.928;20.078;2023-12-28T01:24:13;35.13;;;17.25;;
71166;SDS011;58864;45.928;20.078;2023-12-28T01:26:38;38.57;;;17.00;;
71166;SDS011;58864;45.928;20.078;2023-12-28T01:29:02;42.22;;;18.52;;
71166;SDS011;58864;45.928;20.078;2023-12-28T01:31:27;36.23;;;17.53;;
71166;SDS011;58864;45.928;20.078;2023-12-28T01:33:51;37.63;;;17.87;;
71166;SDS011;58864;45.928;20.078;2023-12-28T01:36:19;37.28;;;17.23;;
71166;SDS011;58864;45.928;20.078;2023-12-28T01:38:44;38.03;;;16.80;;
71166;SDS011;58864;45.928;20.078;2023-12-28T01:41:08;38.35;;;17.95;;
71166;SDS011;58864;45.928;20.078;2023-12-28T01:43:33;38.23;;;17.07;;
71166;SDS011;58864;45.928;20.078;2023-12-28T01:45:57;39.47;;;18.02;;
71166;SDS011;58864;45.928;20.078;2023-12-28T01:48:22;40.27;;;18.23;;
71166;SDS011;58864;45.928;20.078;2023-12-28T01:50:46;37.70;;;18.13;;
71166;SDS011;58864;45.928;20.078;2023-12-28T01:53:11;38.33;;;16.92;;
71166;SDS011;58864;45.928;20.078;2023-12-28T01:55:36;37.23;;;16.90;;
71166;SDS011;58864;45.928;20.078;2023-12-28T01:58:00;38.22;;;16.45;;
71166;SDS011;58864;45.928;20.078;2023-12-28T02:00:24;41.23;;;17.87;;
71166;SDS011;58864;45.928;20.078;2023-12-28T02:02:49;38.80;;;16.83;;
71166;SDS011;58864;45.928;20.078;2023-12-28T02:05:14;40.92;;;17.55;;
71166;SDS011;58864;45.928;20.078;2023-12-28T02:07:39;43.27;;;18.87;;
71166;SDS011;58864;45.928;20.078;2023-12-28T02:10:03;45.05;;;18.67;;
71166;SDS011;58864;45.928;20.078;2023-12-28T02:12:28;39.27;;;17.60;;
71166;SDS011;58864;45.928;20.078;2023-12-28T02:14:53;40.53;;;19.02;;
71166;SDS011;58864;45.928;20.078;2023-12-28T02:17:54;36.57;;;17.20;;
71166;SDS011;58864;45.928;20.078;2023-12-28T02:20:20;37.38;;;17.30;;
71166;SDS011;58864;45.928;20.078;2023-12-28T02:22:45;43.83;;;18.40;;
71166;SDS011;58864;45.928;20.078;2023-12-28T02:25:10;40.20;;;18.58;;
71166;SDS011;58864;45.928;20.078;2023-12-28T02:27:40;42.40;;;18.50;;
71166;SDS011;58864;45.928;20.078;2023-12-28T02:30:06;45.58;;;18.25;;
71166;SDS011;58864;45.928;20.078;2023-12-28T02:32:33;44.00;;;19.70;;
71166;SDS011;58864;45.928;20.078;2023-12-28T02:35:24;37.43;;;17.50;;
71166;SDS011;58864;45.928;20.078;2023-12-28T02:37:55;41.95;;;18.98;;
71166;SDS011;58864;45.928;20.078;2023-12-28T02:40:25;47.45;;;18.45;;
71166;SDS011;58864;45.928;20.078;2023-12-28T02:42:50;37.75;;;18.35;;
71166;SDS011;58864;45.928;20.078;2023-12-28T02:45:15;36.80;;;17.27;;
71166;SDS011;58864;45.928;20.078;2023-12-28T02:47:39;43.75;;;19.17;;
71166;SDS011;58864;45.928;20.078;2023-12-28T02:50:04;39.57;;;18.30;;
71166;SDS011;58864;45.928;20.078;2023-12-28T02:52:29;41.97;;;19.42;;
71166;SDS011;58864;45.928;20.078;2023-12-28T02:54:54;45.27;;;18.70;;
71166;SDS011;58864;45.928;20.078;2023-12-28T02:57:18;42.93;;;18.47;;
71166;SDS011;58864;45.928;20.078;2023-12-28T02:59:42;37.80;;;17.87;;
71166;SDS011;58864;45.928;20.078;2023-12-28T03:02:07;37.67;;;17.33;;
71166;SDS011;58864;45.928;20.078;2023-12-28T03:04:31;38.42;;;16.05;;
71166;SDS011;58864;45.928;20.078;2023-12-28T03:06:56;38.53;;;17.73;;
71166;SDS011;58864;45.928;20.078;2023-12-28T03:09:20;42.83;;;18.33;;
71166;SDS011;58864;45.928;20.078;2023-12-28T03:11:45;46.15;;;18.83;;
71166;SDS011;58864;45.928;20.078;2023-12-28T03:14:09;43.50;;;18.63;;
71166;SDS011;58864;45.928;20.078;2023-12-28T03:16:33;41.50;;;18.57;;
71166;SDS011;58864;45.928;20.078;2023-12-28T03:18:58;39.30;;;18.10;;
71166;SDS011;58864;45.928;20.078;2023-12-28T03:21:22;37.85;;;16.10;;
71166;SDS011;58864;45.928;20.078;2023-12-28T03:23:47;37.10;;;16.27;;
71166;SDS011;58864;45.928;20.078;2023-12-28T03:26:11;33.13;;;15.40;;
71166;SDS011;58864;45.928;20.078;2023-12-28T03:28:35;32.90;;;15.27;;
71166;SDS011;58864;45.928;20.078;2023-12-28T03:31:01;32.90;;;15.23;;
71166;SDS011;58864;45.928;20.078;2023-12-28T03:33:27;38.00;;;16.60;;
71166;SDS011;58864;45.928;20.078;2023-12-28T03:35:51;39.23;;;16.50;;
71166;SDS011;58864;45.928;20.078;2023-12-28T03:38:16;36.75;;;16.65;;
71166;SDS011;58864;45.928;20.078;2023-12-28T03:40:40;38.17;;;16.83;;
71166;SDS011;58864;45.928;20.078;2023-12-28T03:43:05;37.87;;;16.63;;
71166;SDS011;58864;45.928;20.078;2023-12-28T03:45:29;35.13;;;15.87;;
71166;SDS011;58864;45.928;20.078;2023-12-28T03:47:53;34.63;;;16.73;;
71166;SDS011;58864;45.928;20.078;2023-12-28T03:50:18;39.57;;;16.40;;
71166;SDS011;58864;45.928;20.078;2023-12-28T03:52:42;35.00;;;15.80;;
71166;SDS011;58864;45.928;20.078;2023-12-28T03:55:07;31.40;;;15.27;;
71166;SDS011;58864;45.928;20.078;2023-12-28T03:57:31;34.47;;;16.10;;
71166;SDS011;58864;45.928;20.078;2023-12-28T03:59:56;33.13;;;16.57;;
71166;SDS011;58864;45.928;20.078;2023-12-28T04:02:20;33.97;;;15.15;;
71166;SDS011;58864;45.928;20.078;2023-12-28T04:04:45;34.90;;;15.57;;
71166;SDS011;58864;45.928;20.078;2023-12-28T04:07:09;34.37;;;17.23;;
71166;SDS011;58864;45.928;20.078;2023-12-28T04:09:34;34.00;;;15.68;;
71166;SDS011;58864;45.928;20.078;2023-12-28T04:11:58;32.77;;;15.53;;
71166;SDS011;58864;45.928;20.078;2023-12-28T04:14:23;31.40;;;13.83;;
71166;SDS011;58864;45.928;20.078;2023-12-28T04:16:47;31.17;;;15.63;;
71166;SDS011;58864;45.928;20.078;2023-12-28T04:19:11;31.45;;;13.75;;
71166;SDS011;58864;45.928;20.078;2023-12-28T04:21:36;31.33;;;14.77;;
71166;SDS011;58864;45.928;20.078;2023-12-28T04:24:00;29.90;;;13.50;;
71166;SDS011;58864;45.928;20.078;2023-12-28T04:26:25;29.07;;;14.07;;
71166;SDS011;58864;45.928;20.078;2023-12-28T04:28:49;31.15;;;14.35;;
71166;SDS011;58864;45.928;20.078;2023-12-28T04:31:13;29.00;;;13.03;;
71166;SDS011;58864;45.928;20.078;2023-12-28T04:33:38;30.47;;;14.00;;
71166;SDS011;58864;45.928;20.078;2023-12-28T04:36:03;30.07;;;13.43;;
71166;SDS011;58864;45.928;20.078;2023-12-28T04:38:28;29.23;;;13.45;;
71166;SDS011;58864;45.928;20.078;2023-12-28T04:40:52;31.83;;;14.20;;
71166;SDS011;58864;45.928;20.078;2023-12-28T04:43:17;27.70;;;12.87;;
71166;SDS011;58864;45.928;20.078;2023-12-28T04:45:41;29.53;;;13.67;;
71166;SDS011;58864;45.928;20.078;2023-12-28T04:48:05;26.70;;;12.63;;
71166;SDS011;58864;45.928;20.078;2023-12-28T04:50:30;29.67;;;12.97;;
71166;SDS011;58864;45.928;20.078;2023-12-28T04:52:54;30.20;;;13.50;;
71166;SDS011;58864;45.928;20.078;2023-12-28T04:55:19;26.53;;;13.07;;
71166;SDS011;58864;45.928;20.078;2023-12-28T04:57:44;28.75;;;12.57;;
71166;SDS011;58864;45.928;20.078;2023-12-28T05:00:09;27.87;;;13.27;;
71166;SDS011;58864;45.928;20.078;2023-12-28T05:02:34;26.85;;;12.95;;
71166;SDS011;58864;45.928;20.078;2023-12-28T05:04:58;30.90;;;13.60;;
71166;SDS011;58864;45.928;20.078;2023-12-28T05:07:23;28.87;;;13.37;;
71166;SDS011;58864;45.928;20.078;2023-12-28T05:09:47;28.57;;;12.70;;
71166;SDS011;58864;45.928;20.078;2023-12-28T05:12:11;28.73;;;13.38;;
71166;SDS011;58864;45.928;20.078;2023-12-28T05:14:36;35.37;;;14.13;;
71166;SDS011;58864;45.928;20.078;2023-12-28T05:17:00;33.37;;;14.23;;
71166;SDS011;58864;45.928;20.078;2023-12-28T05:19:25;30.20;;;13.90;;
71166;SDS011;58864;45.928;20.078;2023-12-28T05:21:49;31.42;;;13.95;;
71166;SDS011;58864;45.928;20.078;2023-12-28T05:24:13;29.30;;;13.93;;
71166;SDS011;58864;45.928;20.078;2023-12-28T05:26:38;28.83;;;12.03;;
71166;SDS011;58864;45.928;20.078;2023-12-28T05:29:02;28.17;;;12.10;;
71166;SDS011;58864;45.928;20.078;2023-12-28T05:31:27;23.10;;;10.93;;
71166;SDS011;58864;45.928;20.078;2023-12-28T05:33:51;25.08;;;11.07;;
71166;SDS011;58864;45.928;20.078;2023-12-28T05:36:15;22.50;;;9.50;;
71166;SDS011;58864;45.928;20.078;2023-12-28T05:38:40;28.33;;;12.30;;
71166;SDS011;58864;45.928;20.078;2023-12-28T05:41:04;22.00;;;11.02;;
71166;SDS011;58864;45.928;20.078;2023-12-28T05:43:29;22.53;;;10.90;;
71166;SDS011;58864;45.928;20.078;2023-12-28T05:45:53;26.00;;;11.17;;
71166;SDS011;58864;45.928;20.078;2023-12-28T05:48:18;22.47;;;10.93;;
71166;SDS011;58864;45.928;20.078;2023-12-28T05:50:42;24.10;;;11.33;;
71166;SDS011;58864;45.928;20.078;2023-12-28T05:53:06;25.33;;;11.20;;
71166;SDS011;58864;45.928;20.078;2023-12-28T05:55:31;23.47;;;11.20;;
71166;SDS011;58864;45.928;20.078;2023-12-28T05:57:55;25.53;;;11.63;;
71166;SDS011;58864;45.928;20.078;2023-12-28T06:00:20;26.85;;;12.60;;
71166;SDS011;58864;45.928;20.078;2023-12-28T06:02:44;28.00;;;12.60;;
71166;SDS011;58864;45.928;20.078;2023-12-28T06:05:10;29.20;;;13.20;;
71166;SDS011;58864;45.928;20.078;2023-12-28T06:07:35;30.73;;;14.53;;
71166;SDS011;58864;45.928;20.078;2023-12-28T06:09:59;43.33;;;19.05;;
71166;SDS011;58864;45.928;20.078;2023-12-28T06:12:24;50.17;;;20.83;;
71166;SDS011;58864;45.928;20.078;2023-12-28T06:14:48;55.30;;;22.77;;
71166;SDS011;58864;45.928;20.078;2023-12-28T06:17:13;50.22;;;20.33;;
71166;SDS011;58864;45.928;20.078;2023-12-28T06:19:39;49.57;;;19.77;;
71166;SDS011;58864;45.928;20.078;2023-12-28T06:22:03;52.45;;;20.65;;
71166;SDS011;58864;45.928;20.078;2023-12-28T06:24:28;46.67;;;18.87;;
71166;SDS011;58864;45.928;20.078;2023-12-28T06:26:52;43.93;;;17.17;;
71166;SDS011;58864;45.928;20.078;2023-12-28T06:29:17;35.80;;;14.07;;
71166;SDS011;58864;45.928;20.078;2023-12-28T06:31:41;32.57;;;14.77;;
71166;SDS011;58864;45.928;20.078;2023-12-28T06:34:06;32.85;;;14.00;;
71166;SDS011;58864;45.928;20.078;2023-12-28T06:36:30;29.90;;;13.57;;
71166;SDS011;58864;45.928;20.078;2023-12-28T06:38:55;31.25;;;13.20;;
71166;SDS011;58864;45.928;20.078;2023-12-28T06:41:19;33.50;;;15.10;;
71166;SDS011;58864;45.928;20.078;2023-12-28T06:43:43;39.03;;;15.00;;
71166;SDS011;58864;45.928;20.078;2023-12-28T06:46:08;44.70;;;16.07;;
71166;SDS011;58864;45.928;20.078;2023-12-28T06:48:32;59.07;;;20.80;;
71166;SDS011;58864;45.928;20.078;2023-12-28T06:50:57;70.60;;;24.08;;
71166;SDS011;58864;45.928;20.078;2023-12-28T06:53:21;77.53;;;28.77;;
71166;SDS011;58864;45.928;20.078;2023-12-28T06:55:45;82.10;;;28.90;;
71166;SDS011;58864;45.928;20.078;2023-12-28T06:58:11;76.60;;;28.80;;
71166;SDS011;58864;45.928;20.078;2023-12-28T07:00:36;54.37;;;22.23;;
71166;SDS011;58864;45.928;20.078;2023-12-28T07:03:00;47.00;;;19.17;;
71166;SDS011;58864;45.928;20.078;2023-12-28T07:05:24;42.90;;;19.23;;
71166;SDS011;58864;45.928;20.078;2023-12-28T07:07:49;54.30;;;22.10;;
71166;SDS011;58864;45.928;20.078;2023-12-28T07:10:13;68.80;;;25.97;;
71166;SDS011;58864;45.928;20.078;2023-12-28T07:12:38;81.07;;;28.53;;
71166;SDS011;58864;45.928;20.078;2023-12-28T07:15:02;78.57;;;28.73;;
71166;SDS011;58864;45.928;20.078;2023-12-28T07:17:27;84.20;;;32.30;;
71166;SDS011;58864;45.928;20.078;2023-12-28T07:19:52;80.72;;;30.35;;
71166;SDS011;58864;45.928;20.078;2023-12-28T07:22:16;53.30;;;21.80;;
71166;SDS011;58864;45.928;20.078;2023-12-28T07:24:41;39.83;;;17.67;;
71166;SDS011;58864;45.928;20.078;2023-12-28T07:27:05;47.27;;;17.07;;
71166;SDS011;58864;45.928;20.078;2023-12-28T07:29:30;38.33;;;16.73;;
71166;SDS011;58864;45.928;20.078;2023-12-28T07:31:54;33.27;;;14.43;;
71166;SDS011;58864;45.928;20.078;2023-12-28T07:34:19;37.72;;;14.07;;
71166;SDS011;58864;45.928;20.078;2023-12-28T07:36:44;31.13;;;13.30;;
71166;SDS011;58864;45.928;20.078;2023-12-28T07:39:08;27.03;;;12.07;;
71166;SDS011;58864;45.928;20.078;2023-12-28T07:41:32;32.55;;;12.95;;
71166;SDS011;58864;45.928;20.078;2023-12-28T07:43:57;33.53;;;14.27;;
71166;SDS011;58864;45.928;20.078;2023-12-28T07:46:22;30.55;;;12.32;;
71166;SDS011;58864;45.928;20.078;2023-12-28T07:48:47;27.80;;;12.20;;
71166;SDS011;58864;45.928;20.078;2023-12-28T07:51:12;27.38;;;12.68;;
71166;SDS011;58864;45.928;20.078;2023-12-28T07:53:37;38.77;;;14.77;;
71166;SDS011;58864;45.928;20.078;2023-12-28T07:56:01;34.53;;;15.40;;
71166;SDS011;58864;45.928;20.078;2023-12-28T07:58:26;36.83;;;16.23;;
71166;SDS011;58864;45.928;20.078;2023-12-28T08:00:50;59.83;;;22.90;;
71166;SDS011;58864;45.928;20.078;2023-12-28T08:03:15;41.53;;;17.52;;
71166;SDS011;58864;45.928;20.078;2023-12-28T08:05:40;35.00;;;15.37;;
71166;SDS011;58864;45.928;20.078;2023-12-28T08:08:04;35.20;;;15.20;;
71166;SDS011;58864;45.928;20.078;2023-12-28T08:10:29;40.90;;;17.98;;
71166;SDS011;58864;45.928;20.078;2023-12-28T08:12:53;40.07;;;18.13;;
71166;SDS011;58864;45.928;20.078;2023-12-28T08:15:18;35.17;;;14.97;;
71166;SDS011;58864;45.928;20.078;2023-12-28T08:17:45;36.40;;;14.10;;
71166;SDS011;58864;45.928;20.078;2023-12-28T08:20:13;32.57;;;14.20;;
71166;SDS011;58864;45.928;20.078;2023-12-28T08:22:37;31.88;;;14.63;;
71166;SDS011;58864;45.928;20.078;2023-12-28T08:25:02;29.00;;;13.07;;
71166;SDS011;58864;45.928;20.078;2023-12-28T08:27:26;34.17;;;15.13;;
71166;SDS011;58864;45.928;20.078;2023-12-28T08:29:51;34.83;;;15.20;;
71166;SDS011;58864;45.928;20.078;2023-12-28T08:32:15;39.03;;;18.03;;
71166;SDS011;58864;45.928;20.078;2023-12-28T08:34:41;60.08;;;22.58;;
71166;SDS011;58864;45.928;20.078;2023-12-28T08:37:05;57.03;;;22.63;;
71166;SDS011;58864;45.928;20.078;2023-12-28T08:39:30;68.80;;;23.38;;
71166;SDS011;58864;45.928;20.078;2023-12-28T08:41:55;65.47;;;22.37;;
71166;SDS011;58864;45.928;20.078;2023-12-28T08:44:19;53.55;;;21.52;;
71166;SDS011;58864;45.928;20.078;2023-12-28T08:46:44;56.43;;;20.13;;
71166;SDS011;58864;45.928;20.078;2023-12-28T08:49:09;40.10;;;17.13;;
71166;SDS011;58864;45.928;20.078;2023-12-28T08:51:34;32.87;;;15.30;;
71166;SDS011;58864;45.928;20.078;2023-12-28T08:53:58;38.80;;;17.92;;
71166;SDS011;58864;45.928;20.078;2023-12-28T08:56:23;38.43;;;17.90;;
71166;SDS011;58864;45.928;20.078;2023-12-28T08:58:48;35.23;;;16.40;;
71166;SDS011;58864;45.928;20.078;2023-12-28T09:01:16;36.60;;;16.40;;
71166;SDS011;58864;45.928;20.078;2023-12-28T09:03:46;38.25;;;17.48;;
71166;SDS011;58864;45.928;20.078;2023-12-28T09:06:13;32.67;;;16.33;;
71166;SDS011;58864;45.928;20.078;2023-12-28T09:08:40;40.85;;;17.10;;
71166;SDS011;58864;45.928;20.078;2023-12-28T09:11:05;35.90;;;16.53;;
71166;SDS011;58864;45.928;20.078;2023-12-28T09:13:30;37.20;;;17.20;;
71166;SDS011;58864;45.928;20.078;2023-12-28T09:15:55;41.43;;;19.03;;
71166;SDS011;58864;45.928;20.078;2023-12-28T09:18:19;52.92;;;21.88;;
71166;SDS011;58864;45.928;20.078;2023-12-28T09:20:44;58.63;;;25.30;;
71166;SDS011;58864;45.928;20.078;2023-12-28T09:23:08;52.17;;;23.07;;
71166;SDS011;58864;45.928;20.078;2023-12-28T09:25:34;55.95;;;24.90;;
71166;SDS011;58864;45.928;20.078;2023-12-28T09:27:59;51.50;;;24.80;;
71166;SDS011;58864;45.928;20.078;2023-12-28T09:30:23;55.50;;;23.90;;
71166;SDS011;58864;45.928;20.078;2023-12-28T09:32:48;50.70;;;23.27;;
71166;SDS011;58864;45.928;20.078;2023-12-28T09:35:12;49.97;;;24.47;;
71166;SDS011;58864;45.928;20.078;2023-12-28T09:37:36;58.13;;;25.40;;
71166;SDS011;58864;45.928;20.078;2023-12-28T09:40:01;54.13;;;25.50;;
71166;SDS011;58864;45.928;20.078;2023-12-28T09:42:26;49.63;;;23.47;;
71166;SDS011;58864;45.928;20.078;2023-12-28T09:44:56;49.28;;;22.25;;
71166;SDS011;58864;45.928;20.078;2023-12-28T09:47:21;41.83;;;18.90;;
71166;SDS011;58864;45.928;20.078;2023-12-28T09:49:45;36.95;;;18.38;;
71166;SDS011;58864;45.928;20.078;2023-12-28T09:52:11;46.77;;;21.63;;
71166;SDS011;58864;45.928;20.078;2023-12-28T09:54:35;43.92;;;20.27;;
71166;SDS011;58864;45.928;20.078;2023-12-28T09:57:00;44.17;;;21.20;;
71166;SDS011;58864;45.928;20.078;2023-12-28T09:59:25;43.63;;;21.40;;
71166;SDS011;58864;45.928;20.078;2023-12-28T10:01:51;53.45;;;22.67;;
71166;SDS011;58864;45.928;20.078;2023-12-28T10:04:16;44.07;;;21.60;;
71166;SDS011;58864;45.928;20.078;2023-12-28T10:06:40;45.30;;;22.23;;
71166;SDS011;58864;45.928;20.078;2023-12-28T10:09:05;37.47;;;19.93;;
71166;SDS011;58864;45.928;20.078;2023-12-28T10:11:31;46.17;;;21.23;;
71166;SDS011;58864;45.928;20.078;2023-12-28T10:13:55;42.17;;;20.67;;
71166;SDS011;58864;45.928;20.078;2023-12-28T10:16:21;43.72;;;20.60;;
71166;SDS011;58864;45.928;20.078;2023-12-28T10:18:46;47.40;;;21.03;;
71166;SDS011;58864;45.928;20.078;2023-12-28T10:21:10;48.27;;;22.10;;
71166;SDS011;58864;45.928;20.078;2023-12-28T10:23:35;64.18;;;26.50;;
71166;SDS011;58864;45.928;20.078;2023-12-28T10:26:00;81.38;;;32.03;;
71166;SDS011;58864;45.928;20.078;2023-12-28T10:28:25;54.23;;;24.47;;
71166;SDS011;58864;45.928;20.078;2023-12-28T10:30:53;42.95;;;20.92;;
71166;SDS011;58864;45.928;20.078;2023-12-28T10:33:18;36.23;;;19.07;;
71166;SDS011;58864;45.928;20.078;2023-12-28T10:35:43;37.05;;;18.38;;
71166;SDS011;58864;45.928;20.078;2023-12-28T10:38:08;37.28;;;18.00;;
71166;SDS011;58864;45.928;20.078;2023-12-28T10:40:34;39.25;;;18.88;;
71166;SDS011;58864;45.928;20.078;2023-12-28T10:43:04;39.72;;;18.60;;
71166;SDS011;58864;45.928;20.078;2023-12-28T10:45:31;51.10;;;22.13;;
71166;SDS011;58864;45.928;20.078;2023-12-28T10:48:04;63.72;;;27.65;;
71166;SDS011;58864;45.928;20.078;2023-12-28T10:50:33;47.28;;;21.83;;
71166;SDS011;58864;45.928;20.078;2023-12-28T10:53:04;43.28;;;21.40;;
71166;SDS011;58864;45.928;20.078;2023-12-28T10:58:14;72.90;;;28.93;;
71166;SDS011;58864;45.928;20.078;2023-12-28T11:00:49;75.53;;;30.27;;
71166;SDS011;58864;45.928;20.078;2023-12-28T11:03:18;61.53;;;27.60;;
71166;SDS011;58864;45.928;20.078;2023-12-28T11:05:44;60.58;;;25.88;;
71166;SDS011;58864;45.928;20.078;2023-12-28T11:08:09;52.23;;;24.43;;
71166;SDS011;58864;45.928;20.078;2023-12-28T11:10:34;46.83;;;22.83;;
71166;SDS011;58864;45.928;20.078;2023-12-28T11:12:59;51.30;;;24.58;;
71166;SDS011;58864;45.928;20.078;2023-12-28T11:15:23;49.23;;;24.00;;
71166;SDS011;58864;45.928;20.078;2023-12-28T11:17:49;49.88;;;24.10;;
71166;SDS011;58864;45.928;20.078;2023-12-28T11:20:14;45.33;;;23.17;;
71166;SDS011;58864;45.928;20.078;2023-12-28T11:22:39;48.10;;;23.05;;
71166;SDS011;58864;45.928;20.078;2023-12-28T11:25:04;50.13;;;23.45;;
71166;SDS011;58864;45.928;20.078;2023-12-28T11:27:35;53.50;;;23.73;;
71166;SDS011;58864;45.928;20.078;2023-12-28T11:30:00;46.70;;;22.42;;
71166;SDS011;58864;45.928;20.078;2023-12-28T11:32:27;49.55;;;23.77;;
71166;SDS011;58864;45.928;20.078;2023-12-28T11:34:58;55.20;;;23.97;;
71166;SDS011;58864;45.928;20.078;2023-12-28T11:37:25;53.22;;;23.33;;
71166;SDS011;58864;45.928;20.078;2023-12-28T11:39:50;55.33;;;25.55;;
71166;SDS011;58864;45.928;20.078;2023-12-28T11:42:18;51.37;;;23.33;;
71166;SDS011;58864;45.928;20.078;2023-12-28T11:44:44;47.45;;;22.58;;
71166;SDS011;58864;45.928;20.078;2023-12-28T11:47:12;47.70;;;23.15;;
71166;SDS011;58864;45.928;20.078;2023-12-28T11:49:40;42.17;;;20.93;;
71166;SDS011;58864;45.928;20.078;2023-12-28T11:52:05;44.88;;;20.80;;
71166;SDS011;58864;45.928;20.078;2023-12-28T11:54:29;37.75;;;19.30;;
71166;SDS011;58864;45.928;20.078;2023-12-28T11:56:54;35.33;;;18.90;;
71166;SDS011;58864;45.928;20.078;2023-12-28T11:59:19;43.57;;;20.13;;
71166;SDS011;58864;45.928;20.078;2023-12-28T12:01:44;40.25;;;19.92;;
71166;SDS011;58864;45.928;20.078;2023-12-28T12:04:13;42.05;;;21.25;;
71166;SDS011;58864;45.928;20.078;2023-12-28T12:06:38;44.37;;;21.00;;
71166;SDS011;58864;45.928;20.078;2023-12-28T12:09:03;46.72;;;23.58;;
71166;SDS011;58864;45.928;20.078;2023-12-28T12:11:28;50.33;;;22.67;;
71166;SDS011;58864;45.928;20.078;2023-12-28T12:13:52;47.13;;;21.90;;
71166;SDS011;58864;45.928;20.078;2023-12-28T12:16:17;57.80;;;25.17;;
71166;SDS011;58864;45.928;20.078;2023-12-28T12:18:42;49.47;;;22.80;;
71166;SDS011;58864;45.928;20.078;2023-12-28T12:21:06;42.53;;;19.87;;
71166;SDS011;58864;45.928;20.078;2023-12-28T12:23:31;39.80;;;19.30;;
71166;SDS011;58864;45.928;20.078;2023-12-28T12:25:55;37.83;;;18.40;;
71166;SDS011;58864;45.928;20.078;2023-12-28T12:28:19;40.47;;;17.67;;
71166;SDS011;58864;45.928;20.078;2023-12-28T12:30:53;38.73;;;17.67;;
71166;SDS011;58864;45.928;20.078;2023-12-28T12:33:23;37.20;;;17.60;;
71166;SDS011;58864;45.928;20.078;2023-12-28T12:35:48;33.28;;;17.38;;
71166;SDS011;58864;45.928;20.078;2023-12-28T12:38:13;36.47;;;16.87;;
71166;SDS011;58864;45.928;20.078;2023-12-28T12:40:39;31.50;;;15.70;;
71166;SDS011;58864;45.928;20.078;2023-12-28T12:43:03;29.95;;;15.65;;
71166;SDS011;58864;45.928;20.078;2023-12-28T12:45:28;29.83;;;14.40;;
71166;SDS011;58864;45.928;20.078;2023-12-28T12:47:52;30.33;;;15.97;;
71166;SDS011;58864;45.928;20.078;2023-12-28T12:50:17;37.60;;;19.88;;
71166;SDS011;58864;45.928;20.078;2023-12-28T12:52:42;40.73;;;18.67;;
71166;SDS011;58864;45.928;20.078;2023-12-28T12:55:12;46.65;;;19.05;;
71166;SDS011;58864;45.928;20.078;2023-12-28T12:57:38;33.75;;;16.58;;
71166;SDS011;58864;45.928;20.078;2023-12-28T13:00:03;31.00;;;14.90;;
71166;SDS011;58864;45.928;20.078;2023-12-28T13:02:33;35.10;;;15.80;;
71166;SDS011;58864;45.928;20.078;2023-12-28T13:04:57;26.27;;;13.83;;
71166;SDS011;58864;45.928;20.078;2023-12-28T13:07:22;27.02;;;13.68;;
71166;SDS011;58864;45.928;20.078;2023-12-28T13:09:46;33.07;;;16.00;;
71166;SDS011;58864;45.928;20.078;2023-12-28T13:12:10;33.30;;;14.73;;
71166;SDS011;58864;45.928;20.078;2023-12-28T13:14:35;35.73;;;17.10;;
71166;SDS011;58864;45.928;20.078;2023-12-28T13:16:59;39.97;;;16.57;;
71166;SDS011;58864;45.928;20.078;2023-12-28T13:19:24;41.67;;;16.93;;
71166;SDS011;58864;45.928;20.078;2023-12-28T13:21:48;40.13;;;15.97;;
71166;SDS011;58864;45.928;20.078;2023-12-28T13:24:13;39.23;;;16.80;;
71166;SDS011;58864;45.928;20.078;2023-12-28T13:26:37;30.33;;;14.87;;
71166;SDS011;58864;45.928;20.078;2023-12-28T13:29:02;28.27;;;13.20;;
71166;SDS011;58864;45.928;20.078;2023-12-28T13:31:26;29.03;;;13.47;;
71166;SDS011;58864;45.928;20.078;2023-12-28T13:33:51;24.87;;;12.53;;
71166;SDS011;58864;45.928;20.078;2023-12-28T13:36:15;26.70;;;13.70;;
71166;SDS011;58864;45.928;20.078;2023-12-28T13:38:40;29.17;;;13.57;;
71166;SDS011;58864;45.928;20.078;2023-12-28T13:41:04;25.20;;;12.70;;
71166;SDS011;58864;45.928;20.078;2023-12-28T13:43:29;23.67;;;11.40;;
71166;SDS011;58864;45.928;20.078;2023-12-28T13:45:53;22.15;;;12.32;;
71166;SDS011;58864;45.928;20.078;2023-12-28T13:48:18;28.53;;;13.50;;
71166;SDS011;58864;45.928;20.078;2023-12-28T13:50:42;28.07;;;13.17;;
71166;SDS011;58864;45.928;20.078;2023-12-28T13:53:08;25.23;;;12.32;;
71166;SDS011;58864;45.928;20.078;2023-12-28T13:55:32;29.87;;;15.33;;
71166;SDS011;58864;45.928;20.078;2023-12-28T13:57:57;27.67;;;13.68;;
71166;SDS011;58864;45.928;20.078;2023-12-28T14:00:22;26.30;;;13.70;;